Calafat, Romania
Current Conditions -  °F | °C
As of 7:00 PM on Thursday 30 Oct 2014 (Local Time) from LRCV Reporting Station
Haze Haze  
Wind Chill: 42°   Ceiling: 3200
Heat Index: 45°   Visibility: 2.5mi
Dew Point: 43°   Wind: 5mph
Humidity: 93%   Direction: 220°SW
Pressure: 30.18"   Gusts: NA
Location:  44°N, 22.95°E
Report Text: LRCV 301600Z 22004KT 4000 BR OVC032 07/06 Q1022 R27/29//95
Loading
Personal Weather Stations






























Interactive Weather Map
Tropical Storm Tracking
New forecast layout! Learn more

10-Day Weather Forecast

Advertisements
Track Severe Weather on mobile